sensor_id;sensor_type;location;lat;lon;timestamp;pressure;altitude;pressure_sealevel;temperature;humidity
75359;BME280;64046;51.978;5.934;2023-06-22T00:01:48;101807.56;;;25.25;68.32
75359;BME280;64046;51.978;5.934;2023-06-22T00:04:20;101814.88;;;25.13;68.17
75359;BME280;64046;51.978;5.934;2023-06-22T00:06:57;101804.16;;;25.13;68.02
75359;BME280;64046;51.978;5.934;2023-06-22T00:09:27;101817.72;;;25.11;67.77
75359;BME280;64046;51.978;5.934;2023-06-22T00:12:16;101820.72;;;25.28;67.34
75359;BME280;64046;51.978;5.934;2023-06-22T00:14:53;101814.03;;;25.12;67.57
75359;BME280;64046;51.978;5.934;2023-06-22T00:17:32;101810.81;;;25.28;67.07
75359;BME280;64046;51.978;5.934;2023-06-22T00:20:06;101802.06;;;25.26;66.71
75359;BME280;64046;51.978;5.934;2023-06-22T00:22:37;101802.31;;;25.03;67.42
75359;BME280;64046;51.978;5.934;2023-06-22T00:25:12;101802.47;;;25.02;67.67
75359;BME280;64046;51.978;5.934;2023-06-22T00:27:46;101801.03;;;25.17;67.44
75359;BME280;64046;51.978;5.934;2023-06-22T00:30:16;101807.41;;;25.16;67.85
75359;BME280;64046;51.978;5.934;2023-06-22T00:32:48;101800.66;;;25.22;67.35
75359;BME280;64046;51.978;5.934;2023-06-22T00:35:19;101798.06;;;25.01;68.06
75359;BME280;64046;51.978;5.934;2023-06-22T00:37:51;101786.91;;;24.96;68.82
75359;BME280;64046;51.978;5.934;2023-06-22T00:40:27;101786.63;;;24.89;69.22
75359;BME280;64046;51.978;5.934;2023-06-22T00:43:00;101792.28;;;24.96;68.99
75359;BME280;64046;51.978;5.934;2023-06-22T00:45:36;101797.38;;;24.89;69.79
75359;BME280;64046;51.978;5.934;2023-06-22T00:48:07;101789.03;;;24.92;69.48
75359;BME280;64046;51.978;5.934;2023-06-22T00:50:44;101783.50;;;24.84;69.75
75359;BME280;64046;51.978;5.934;2023-06-22T00:53:18;101789.59;;;24.96;69.49
75359;BME280;64046;51.978;5.934;2023-06-22T00:55:55;101801.16;;;24.86;69.67
75359;BME280;64046;51.978;5.934;2023-06-22T00:58:32;101798.50;;;24.96;69.49
75359;BME280;64046;51.978;5.934;2023-06-22T01:01:01;101802.41;;;24.82;70.08
75359;BME280;64046;51.978;5.934;2023-06-22T01:03:41;101799.19;;;24.98;69.33
75359;BME280;64046;51.978;5.934;2023-06-22T01:06:19;101804.84;;;24.95;69.77
75359;BME280;64046;51.978;5.934;2023-06-22T01:09:06;101800.47;;;24.94;69.58
75359;BME280;64046;51.978;5.934;2023-06-22T01:11:45;101795.06;;;24.84;70.44
75359;BME280;64046;51.978;5.934;2023-06-22T01:14:24;101800.56;;;24.83;70.46
75359;BME280;64046;51.978;5.934;2023-06-22T01:16:59;101801.84;;;24.79;70.35
75359;BME280;64046;51.978;5.934;2023-06-22T01:19:39;101794.97;;;24.86;70.07
75359;BME280;64046;51.978;5.934;2023-06-22T01:22:15;101794.50;;;24.81;70.54
75359;BME280;64046;51.978;5.934;2023-06-22T01:24:57;101786.75;;;24.78;70.47
75359;BME280;64046;51.978;5.934;2023-06-22T01:27:39;101787.03;;;24.75;70.59
75359;BME280;64046;51.978;5.934;2023-06-22T01:30:16;101790.09;;;24.70;70.51
75359;BME280;64046;51.978;5.934;2023-06-22T01:32:47;101787.06;;;24.53;71.56
75359;BME280;64046;51.978;5.934;2023-06-22T01:35:20;101780.00;;;24.52;71.81
75359;BME280;64046;51.978;5.934;2023-06-22T01:37:56;101777.19;;;24.54;71.63
75359;BME280;64046;51.978;5.934;2023-06-22T01:40:25;101778.94;;;24.34;72.40
75359;BME280;64046;51.978;5.934;2023-06-22T01:42:56;101777.28;;;24.33;72.49
75359;BME280;64046;51.978;5.934;2023-06-22T01:45:29;101779.13;;;24.42;72.04
75359;BME280;64046;51.978;5.934;2023-06-22T01:48:02;101776.97;;;24.26;72.85
75359;BME280;64046;51.978;5.934;2023-06-22T01:50:32;101775.53;;;24.22;72.93
75359;BME280;64046;51.978;5.934;2023-06-22T01:53:03;101773.25;;;24.17;73.03
75359;BME280;64046;51.978;5.934;2023-06-22T01:55:37;101765.41;;;24.26;72.71
75359;BME280;64046;51.978;5.934;2023-06-22T01:58:11;101765.66;;;24.23;72.97
75359;BME280;64046;51.978;5.934;2023-06-22T02:00:47;101765.78;;;24.21;72.77
75359;BME280;64046;51.978;5.934;2023-06-22T02:03:20;101770.84;;;24.14;73.38
75359;BME280;64046;51.978;5.934;2023-06-22T02:05:58;101769.47;;;24.20;73.18
75359;BME280;64046;51.978;5.934;2023-06-22T02:08:41;101772.56;;;24.25;73.31
75359;BME280;64046;51.978;5.934;2023-06-22T02:11:20;101780.19;;;24.20;73.97
75359;BME280;64046;51.978;5.934;2023-06-22T02:13:53;101773.81;;;24.21;73.97
75359;BME280;64046;51.978;5.934;2023-06-22T02:16:26;101776.38;;;24.23;73.65
75359;BME280;64046;51.978;5.934;2023-06-22T02:19:03;101774.16;;;24.28;73.60
75359;BME280;64046;51.978;5.934;2023-06-22T02:21:45;101772.63;;;24.35;73.07
75359;BME280;64046;51.978;5.934;2023-06-22T02:24:17;101770.72;;;24.16;74.61
75359;BME280;64046;51.978;5.934;2023-06-22T02:26:52;101767.94;;;24.27;74.56
75359;BME280;64046;51.978;5.934;2023-06-22T02:29:26;101764.34;;;24.07;75.05
75359;BME280;64046;51.978;5.934;2023-06-22T02:32:00;101759.88;;;24.17;74.52
75359;BME280;64046;51.978;5.934;2023-06-22T02:34:32;101767.81;;;23.98;75.61
75359;BME280;64046;51.978;5.934;2023-06-22T02:37:06;101759.50;;;24.01;75.28
75359;BME280;64046;51.978;5.934;2023-06-22T02:39:40;101748.34;;;23.96;75.62
75359;BME280;64046;51.978;5.934;2023-06-22T02:42:10;101750.72;;;23.89;75.63
75359;BME280;64046;51.978;5.934;2023-06-22T02:44:43;101755.56;;;23.84;76.07
75359;BME280;64046;51.978;5.934;2023-06-22T02:47:17;101757.22;;;23.96;76.16
75359;BME280;64046;51.978;5.934;2023-06-22T02:49:52;101755.78;;;23.92;76.46
75359;BME280;64046;51.978;5.934;2023-06-22T02:52:24;101753.09;;;23.71;77.49
75359;BME280;64046;51.978;5.934;2023-06-22T02:54:54;101756.38;;;23.75;78.12
75359;BME280;64046;51.978;5.934;2023-06-22T02:57:25;101752.25;;;23.71;77.95
75359;BME280;64046;51.978;5.934;2023-06-22T02:59:56;101751.28;;;23.72;78.56
75359;BME280;64046;51.978;5.934;2023-06-22T03:02:28;101752.88;;;23.84;78.49
75359;BME280;64046;51.978;5.934;2023-06-22T03:05:00;101750.63;;;23.79;78.72
75359;BME280;64046;51.978;5.934;2023-06-22T03:07:30;101746.56;;;23.64;79.49
75359;BME280;64046;51.978;5.934;2023-06-22T03:10:07;101740.84;;;23.69;79.62
75359;BME280;64046;51.978;5.934;2023-06-22T03:12:39;101732.41;;;23.73;79.87
75359;BME280;64046;51.978;5.934;2023-06-22T03:15:12;101739.41;;;23.64;80.87
75359;BME280;64046;51.978;5.934;2023-06-22T03:17:48;101731.56;;;23.73;80.80
75359;BME280;64046;51.978;5.934;2023-06-22T03:20:17;101732.63;;;23.60;81.53
75359;BME280;64046;51.978;5.934;2023-06-22T03:22:51;101736.59;;;23.66;81.15
75359;BME280;64046;51.978;5.934;2023-06-22T03:25:20;101735.72;;;23.65;81.89
75359;BME280;64046;51.978;5.934;2023-06-22T03:27:51;101739.00;;;23.69;82.53
75359;BME280;64046;51.978;5.934;2023-06-22T03:30:24;101733.94;;;23.87;81.94
75359;BME280;64046;51.978;5.934;2023-06-22T03:32:57;101729.16;;;23.91;82.40
75359;BME280;64046;51.978;5.934;2023-06-22T03:35:34;101719.69;;;23.87;83.17
75359;BME280;64046;51.978;5.934;2023-06-22T03:38:04;101718.56;;;23.68;84.10
75359;BME280;64046;51.978;5.934;2023-06-22T03:40:37;101723.22;;;23.87;83.47
75359;BME280;64046;51.978;5.934;2023-06-22T03:43:09;101719.31;;;23.70;84.75
75359;BME280;64046;51.978;5.934;2023-06-22T03:45:38;101716.91;;;23.67;84.93
75359;BME280;64046;51.978;5.934;2023-06-22T03:48:12;101725.69;;;23.79;85.44
75359;BME280;64046;51.978;5.934;2023-06-22T03:50:42;101724.25;;;23.75;85.89
75359;BME280;64046;51.978;5.934;2023-06-22T03:53:15;101718.63;;;23.57;87.06
75359;BME280;64046;51.978;5.934;2023-06-22T03:55:48;101716.50;;;23.72;86.37
75359;BME280;64046;51.978;5.934;2023-06-22T03:58:21;101717.88;;;23.66;87.13
75359;BME280;64046;51.978;5.934;2023-06-22T04:01:03;101720.22;;;23.59;87.46
75359;BME280;64046;51.978;5.934;2023-06-22T04:03:45;101715.06;;;23.89;85.75
75359;BME280;64046;51.978;5.934;2023-06-22T04:06:22;101707.50;;;23.73;87.81
75359;BME280;64046;51.978;5.934;2023-06-22T04:08:53;101713.28;;;23.57;88.35
75359;BME280;64046;51.978;5.934;2023-06-22T04:11:24;101715.59;;;23.61;89.42
75359;BME280;64046;51.978;5.934;2023-06-22T04:13:56;101719.31;;;23.70;89.12
75359;BME280;64046;51.978;5.934;2023-06-22T04:16:31;101720.75;;;23.74;89.22
75359;BME280;64046;51.978;5.934;2023-06-22T04:19:04;101721.16;;;23.79;89.32
75359;BME280;64046;51.978;5.934;2023-06-22T04:21:42;101714.09;;;23.69;89.42
75359;BME280;64046;51.978;5.934;2023-06-22T04:24:15;101715.13;;;23.77;89.75
75359;BME280;64046;51.978;5.934;2023-06-22T04:26:45;101719.69;;;23.87;89.10
75359;BME280;64046;51.978;5.934;2023-06-22T04:29:16;101709.72;;;23.98;88.82
75359;BME280;64046;51.978;5.934;2023-06-22T04:31:48;101707.38;;;24.05;88.40
75359;BME280;64046;51.978;5.934;2023-06-22T04:34:20;101715.78;;;24.22;88.03
75359;BME280;64046;51.978;5.934;2023-06-22T04:36:57;101713.34;;;24.18;88.18
75359;BME280;64046;51.978;5.934;2023-06-22T04:39:32;101715.34;;;24.26;87.55
75359;BME280;64046;51.978;5.934;2023-06-22T04:42:03;101707.34;;;24.36;86.98
75359;BME280;64046;51.978;5.934;2023-06-22T04:44:33;101711.59;;;24.48;86.64
75359;BME280;64046;51.978;5.934;2023-06-22T04:47:04;101698.84;;;24.72;85.22
75359;BME280;64046;51.978;5.934;2023-06-22T04:49:40;101706.63;;;24.94;84.04
75359;BME280;64046;51.978;5.934;2023-06-22T04:52:16;101710.84;;;24.87;84.86
75359;BME280;64046;51.978;5.934;2023-06-22T04:54:55;101700.41;;;24.84;84.92
75359;BME280;64046;51.978;5.934;2023-06-22T04:57:28;101704.06;;;24.63;85.78
75359;BME280;64046;51.978;5.934;2023-06-22T05:00:01;101706.91;;;24.72;85.88
75359;BME280;64046;51.978;5.934;2023-06-22T05:02:38;101700.84;;;24.79;85.40
75359;BME280;64046;51.978;5.934;2023-06-22T05:05:14;101708.16;;;24.97;84.67
75359;BME280;64046;51.978;5.934;2023-06-22T05:07:46;101720.03;;;24.94;84.89
75359;BME280;64046;51.978;5.934;2023-06-22T05:10:19;101706.63;;;25.04;83.96
75359;BME280;64046;51.978;5.934;2023-06-22T05:12:51;101700.97;;;24.87;85.00
75359;BME280;64046;51.978;5.934;2023-06-22T05:15:26;101707.19;;;24.88;84.73
75359;BME280;64046;51.978;5.934;2023-06-22T05:18:03;101714.66;;;24.94;84.37
75359;BME280;64046;51.978;5.934;2023-06-22T05:20:38;101710.28;;;25.03;83.97
75359;BME280;64046;51.978;5.934;2023-06-22T05:23:09;101708.88;;;24.89;84.45
75359;BME280;64046;51.978;5.934;2023-06-22T05:25:38;101703.25;;;24.92;84.22
75359;BME280;64046;51.978;5.934;2023-06-22T05:28:18;101708.19;;;25.16;83.00
75359;BME280;64046;51.978;5.934;2023-06-22T05:30:51;101703.34;;;25.20;82.73
75359;BME280;64046;51.978;5.934;2023-06-22T05:33:20;101698.56;;;25.04;83.20
75359;BME280;64046;51.978;5.934;2023-06-22T05:35:56;101705.22;;;25.19;82.40
75359;BME280;64046;51.978;5.934;2023-06-22T05:38:28;101710.13;;;25.24;81.99
75359;BME280;64046;51.978;5.934;2023-06-22T05:41:00;101705.22;;;25.19;81.93
75359;BME280;64046;51.978;5.934;2023-06-22T05:43:32;101723.41;;;25.26;81.29
75359;BME280;64046;51.978;5.934;2023-06-22T05:46:04;101725.13;;;25.36;80.55
75359;BME280;64046;51.978;5.934;2023-06-22T05:48:41;101717.47;;;25.42;80.19
75359;BME280;64046;51.978;5.934;2023-06-22T05:51:13;101724.84;;;25.49;80.08
75359;BME280;64046;51.978;5.934;2023-06-22T05:53:46;101722.31;;;25.38;79.80
75359;BME280;64046;51.978;5.934;2023-06-22T05:56:17;101724.69;;;25.41;79.37
75359;BME280;64046;51.978;5.934;2023-06-22T05:58:49;101720.03;;;25.43;79.14
75359;BME280;64046;51.978;5.934;2023-06-22T06:01:37;101719.56;;;25.67;78.63
75359;BME280;64046;51.978;5.934;2023-06-22T06:04:07;101723.41;;;25.55;78.29
75359;BME280;64046;51.978;5.934;2023-06-22T06:06:42;101725.75;;;25.78;77.28
75359;BME280;64046;51.978;5.934;2023-06-22T06:09:14;101719.13;;;25.72;77.56
75359;BME280;64046;51.978;5.934;2023-06-22T06:11:53;101722.22;;;25.77;77.17
75359;BME280;64046;51.978;5.934;2023-06-22T06:14:23;101722.31;;;25.95;76.13
75359;BME280;64046;51.978;5.934;2023-06-22T06:16:57;101719.28;;;26.18;75.19
75359;BME280;64046;51.978;5.934;2023-06-22T06:19:29;101725.22;;;26.12;75.30
75359;BME280;64046;51.978;5.934;2023-06-22T06:22:03;101729.75;;;26.39;74.17
75359;BME280;64046;51.978;5.934;2023-06-22T06:24:34;101729.13;;;26.27;73.97
75359;BME280;64046;51.978;5.934;2023-06-22T06:27:08;101729.22;;;26.35;72.80
75359;BME280;64046;51.978;5.934;2023-06-22T06:29:40;101719.72;;;26.41;72.88
75359;BME280;64046;51.978;5.934;2023-06-22T06:32:15;101713.22;;;26.62;72.16
75359;BME280;64046;51.978;5.934;2023-06-22T06:34:45;101712.38;;;26.61;71.56
75359;BME280;64046;51.978;5.934;2023-06-22T06:37:18;101706.59;;;26.84;70.57
75359;BME280;64046;51.978;5.934;2023-06-22T06:39:49;101703.66;;;26.77;70.81
75359;BME280;64046;51.978;5.934;2023-06-22T06:42:26;101702.56;;;26.88;70.12
75359;BME280;64046;51.978;5.934;2023-06-22T06:44:57;101711.31;;;27.08;69.70
75359;BME280;64046;51.978;5.934;2023-06-22T06:47:27;101702.09;;;27.28;68.47
75359;BME280;64046;51.978;5.934;2023-06-22T06:49:56;101694.38;;;27.34;68.01
75359;BME280;64046;51.978;5.934;2023-06-22T06:52:30;101693.38;;;27.53;67.00
75359;BME280;64046;51.978;5.934;2023-06-22T06:55:02;101691.47;;;27.45;67.83
75359;BME280;64046;51.978;5.934;2023-06-22T06:57:35;101701.47;;;27.61;66.44
75359;BME280;64046;51.978;5.934;2023-06-22T07:00:10;101702.25;;;27.71;66.24
75359;BME280;64046;51.978;5.934;2023-06-22T07:02:43;101694.78;;;27.65;65.62
75359;BME280;64046;51.978;5.934;2023-06-22T07:05:20;101692.84;;;27.75;65.28
75359;BME280;64046;51.978;5.934;2023-06-22T07:07:57;101695.56;;;27.84;65.65
75359;BME280;64046;51.978;5.934;2023-06-22T07:10:29;101688.94;;;27.70;66.07
75359;BME280;64046;51.978;5.934;2023-06-22T07:13:03;101687.28;;;27.77;66.10
75359;BME280;64046;51.978;5.934;2023-06-22T07:15:35;101690.16;;;27.75;66.14
75359;BME280;64046;51.978;5.934;2023-06-22T07:18:08;101688.13;;;27.77;66.50
75359;BME280;64046;51.978;5.934;2023-06-22T07:20:42;101682.88;;;28.02;65.41
75359;BME280;64046;51.978;5.934;2023-06-22T07:23:18;101685.50;;;28.20;64.59
75359;BME280;64046;51.978;5.934;2023-06-22T07:25:52;101686.97;;;28.14;64.22
75359;BME280;64046;51.978;5.934;2023-06-22T07:28:26;101682.75;;;28.12;63.37
75359;BME280;64046;51.978;5.934;2023-06-22T07:31:03;101676.53;;;28.11;63.53
75359;BME280;64046;51.978;5.934;2023-06-22T07:33:37;101677.41;;;28.20;63.22
75359;BME280;64046;51.978;5.934;2023-06-22T07:36:06;101677.13;;;27.97;63.58
75359;BME280;64046;51.978;5.934;2023-06-22T07:38:39;101672.31;;;28.09;64.13
75359;BME280;64046;51.978;5.934;2023-06-22T07:41:12;101664.47;;;27.97;63.90
75359;BME280;64046;51.978;5.934;2023-06-22T07:43:42;101667.75;;;28.01;63.43
75359;BME280;64046;51.978;5.934;2023-06-22T07:46:17;101668.56;;;28.02;62.96
75359;BME280;64046;51.978;5.934;2023-06-22T07:48:48;101659.97;;;27.98;63.40
75359;BME280;64046;51.978;5.934;2023-06-22T07:51:19;101661.03;;;28.13;62.91
75359;BME280;64046;51.978;5.934;2023-06-22T07:53:51;101655.16;;;28.18;62.37
75359;BME280;64046;51.978;5.934;2023-06-22T07:56:22;101659.03;;;28.16;62.55
75359;BME280;64046;51.978;5.934;2023-06-22T07:58:53;101655.69;;;28.22;62.27
75359;BME280;64046;51.978;5.934;2023-06-22T08:01:25;101655.53;;;28.31;61.88
75359;BME280;64046;51.978;5.934;2023-06-22T08:03:58;101658.78;;;28.52;61.53
75359;BME280;64046;51.978;5.934;2023-06-22T08:06:30;101653.19;;;28.45;60.99
75359;BME280;64046;51.978;5.934;2023-06-22T08:09:03;101653.84;;;28.47;60.66
75359;BME280;64046;51.978;5.934;2023-06-22T08:11:36;101652.84;;;28.31;60.92
75359;BME280;64046;51.978;5.934;2023-06-22T08:14:07;101645.94;;;28.37;60.56
75359;BME280;64046;51.978;5.934;2023-06-22T08:16:37;101641.69;;;28.26;61.05
75359;BME280;64046;51.978;5.934;2023-06-22T08:19:10;101639.69;;;28.28;60.30
75359;BME280;64046;51.978;5.934;2023-06-22T08:21:48;101624.72;;;28.51;59.00
75359;BME280;64046;51.978;5.934;2023-06-22T08:24:22;101627.94;;;28.46;58.82
75359;BME280;64046;51.978;5.934;2023-06-22T08:26:51;101615.97;;;28.40;59.25
75359;BME280;64046;51.978;5.934;2023-06-22T08:29:25;101607.00;;;28.40;58.81
75359;BME280;64046;51.978;5.934;2023-06-22T08:31:56;101610.22;;;28.43;58.81
75359;BME280;64046;51.978;5.934;2023-06-22T08:34:26;101599.28;;;28.45;58.98
75359;BME280;64046;51.978;5.934;2023-06-22T08:37:03;101598.28;;;28.54;58.60
75359;BME280;64046;51.978;5.934;2023-06-22T08:39:36;101597.97;;;28.82;56.36
75359;BME280;64046;51.978;5.934;2023-06-22T08:42:10;101593.75;;;28.88;55.85
75359;BME280;64046;51.978;5.934;2023-06-22T08:44:41;101597.31;;;28.72;56.04
75359;BME280;64046;51.978;5.934;2023-06-22T08:47:19;101596.97;;;28.75;56.32
75359;BME280;64046;51.978;5.934;2023-06-22T08:49:51;101605.72;;;28.93;55.67
75359;BME280;64046;51.978;5.934;2023-06-22T08:52:21;101601.50;;;28.91;56.33
75359;BME280;64046;51.978;5.934;2023-06-22T08:55:03;101603.84;;;29.10;55.50
75359;BME280;64046;51.978;5.934;2023-06-22T08:57:34;101608.59;;;28.92;55.28
75359;BME280;64046;51.978;5.934;2023-06-22T09:00:07;101604.69;;;29.03;55.39
75359;BME280;64046;51.978;5.934;2023-06-22T09:02:50;101599.97;;;29.05;55.65
75359;BME280;64046;51.978;5.934;2023-06-22T09:05:20;101601.97;;;29.11;55.86
75359;BME280;64046;51.978;5.934;2023-06-22T09:07:55;101614.59;;;29.18;54.92
75359;BME280;64046;51.978;5.934;2023-06-22T09:10:29;101599.13;;;29.29;54.42
75359;BME280;64046;51.978;5.934;2023-06-22T09:13:01;101592.19;;;29.10;54.11
75359;BME280;64046;51.978;5.934;2023-06-22T09:15:34;101594.53;;;29.13;53.35
75359;BME280;64046;51.978;5.934;2023-06-22T09:18:04;101595.38;;;29.30;53.54
75359;BME280;64046;51.978;5.934;2023-06-22T09:20:35;101592.50;;;29.40;53.00
75359;BME280;64046;51.978;5.934;2023-06-22T09:23:07;101590.22;;;29.60;52.73
75359;BME280;64046;51.978;5.934;2023-06-22T09:25:39;101587.84;;;29.65;52.32
75359;BME280;64046;51.978;5.934;2023-06-22T09:28:09;101579.63;;;29.50;51.19
75359;BME280;64046;51.978;5.934;2023-06-22T09:30:45;101583.63;;;29.62;51.31
75359;BME280;64046;51.978;5.934;2023-06-22T09:33:17;101580.91;;;29.71;50.31
75359;BME280;64046;51.978;5.934;2023-06-22T09:35:50;101575.50;;;29.71;49.66
75359;BME280;64046;51.978;5.934;2023-06-22T09:38:28;101576.59;;;29.53;48.97
75359;BME280;64046;51.978;5.934;2023-06-22T09:41:00;101570.78;;;29.64;48.70
75359;BME280;64046;51.978;5.934;2023-06-22T09:43:32;101573.91;;;29.53;48.28
75359;BME280;64046;51.978;5.934;2023-06-22T09:46:06;101577.81;;;29.42;48.27
75359;BME280;64046;51.978;5.934;2023-06-22T09:48:37;101575.59;;;29.46;48.49
75359;BME280;64046;51.978;5.934;2023-06-22T09:51:15;101580.75;;;29.64;48.20
75359;BME280;64046;51.978;5.934;2023-06-22T09:53:49;101575.88;;;29.59;48.40
75359;BME280;64046;51.978;5.934;2023-06-22T09:56:22;101569.28;;;29.62;48.49
75359;BME280;64046;51.978;5.934;2023-06-22T09:58:58;101570.69;;;29.49;47.86
75359;BME280;64046;51.978;5.934;2023-06-22T10:01:38;101569.63;;;29.59;47.43
75359;BME280;64046;51.978;5.934;2023-06-22T10:04:09;101582.84;;;29.45;47.82
75359;BME280;64046;51.978;5.934;2023-06-22T10:06:41;101578.16;;;29.31;46.79
75359;BME280;64046;51.978;5.934;2023-06-22T10:09:16;101578.81;;;29.41;46.92
75359;BME280;64046;51.978;5.934;2023-06-22T10:11:55;101580.50;;;29.42;47.30
75359;BME280;64046;51.978;5.934;2023-06-22T10:14:33;101578.78;;;29.49;46.57
75359;BME280;64046;51.978;5.934;2023-06-22T10:17:07;101570.19;;;29.46;47.29
75359;BME280;64046;51.978;5.934;2023-06-22T10:19:40;101567.34;;;29.47;47.22
75359;BME280;64046;51.978;5.934;2023-06-22T10:22:11;101570.19;;;29.46;47.48
75359;BME280;64046;51.978;5.934;2023-06-22T10:24:46;101567.34;;;29.39;48.12
75359;BME280;64046;51.978;5.934;2023-06-22T10:27:20;101559.25;;;29.39;48.01
75359;BME280;64046;51.978;5.934;2023-06-22T10:29:54;101566.50;;;29.39;48.01
75359;BME280;64046;51.978;5.934;2023-06-22T10:32:23;101566.38;;;29.15;48.44
75359;BME280;64046;51.978;5.934;2023-06-22T10:34:55;101556.75;;;29.13;48.42
75359;BME280;64046;51.978;5.934;2023-06-22T10:37:28;101557.25;;;29.16;48.63
75359;BME280;64046;51.978;5.934;2023-06-22T10:40:00;101553.00;;;29.39;48.20
75359;BME280;64046;51.978;5.934;2023-06-22T10:42:33;101559.25;;;29.39;48.55
75359;BME280;64046;51.978;5.934;2023-06-22T10:45:03;101559.63;;;29.28;48.74
75359;BME280;64046;51.978;5.934;2023-06-22T10:47:36;101555.88;;;29.37;48.78
75359;BME280;64046;51.978;5.934;2023-06-22T10:50:08;101557.09;;;29.34;48.93
75359;BME280;64046;51.978;5.934;2023-06-22T10:52:37;101566.91;;;29.27;49.00
75359;BME280;64046;51.978;5.934;2023-06-22T10:55:11;101553.50;;;29.42;48.96
75359;BME280;64046;51.978;5.934;2023-06-22T10:57:46;101553.50;;;29.42;49.03
75359;BME280;64046;51.978;5.934;2023-06-22T11:00:16;101551.19;;;29.23;49.45
75359;BME280;64046;51.978;5.934;2023-06-22T11:02:50;101549.47;;;29.30;49.14
75359;BME280;64046;51.978;5.934;2023-06-22T11:05:41;101549.28;;;29.40;48.66
75359;BME280;64046;51.978;5.934;2023-06-22T11:08:15;101545.13;;;29.12;49.52
75359;BME280;64046;51.978;5.934;2023-06-22T11:10:47;101548.00;;;29.11;49.75
75359;BME280;64046;51.978;5.934;2023-06-22T11:13:24;101548.13;;;29.34;49.38
75359;BME280;64046;51.978;5.934;2023-06-22T11:15:59;101542.94;;;29.16;49.44
75359;BME280;64046;51.978;5.934;2023-06-22T11:18:33;101549.88;;;29.10;49.53
75359;BME280;64046;51.978;5.934;2023-06-22T11:21:10;101536.84;;;29.14;49.67
75359;BME280;64046;51.978;5.934;2023-06-22T11:23:42;101539.91;;;29.11;49.50
75359;BME280;64046;51.978;5.934;2023-06-22T11:26:15;101556.28;;;29.01;50.41
75359;BME280;64046;51.978;5.934;2023-06-22T11:28:50;101546.19;;;28.95;51.32
75359;BME280;64046;51.978;5.934;2023-06-22T11:31:26;101537.59;;;28.91;51.88
75359;BME280;64046;51.978;5.934;2023-06-22T11:33:56;101537.78;;;28.65;53.56
75359;BME280;64046;51.978;5.934;2023-06-22T11:36:29;101532.88;;;28.52;54.61
75359;BME280;64046;51.978;5.934;2023-06-22T11:39:02;101540.13;;;28.43;55.18
75359;BME280;64046;51.978;5.934;2023-06-22T11:41:39;101546.88;;;28.56;56.52
75359;BME280;64046;51.978;5.934;2023-06-22T11:44:12;101539.09;;;28.53;57.71
75359;BME280;64046;51.978;5.934;2023-06-22T11:46:46;101547.88;;;28.30;58.51
75359;BME280;64046;51.978;5.934;2023-06-22T11:49:18;101549.41;;;28.24;58.26
75359;BME280;64046;51.978;5.934;2023-06-22T11:51:55;101555.47;;;28.43;58.42
75359;BME280;64046;51.978;5.934;2023-06-22T11:54:25;101552.44;;;28.21;59.14
75359;BME280;64046;51.978;5.934;2023-06-22T11:56:54;101561.00;;;28.17;60.20
75359;BME280;64046;51.978;5.934;2023-06-22T11:59:30;101549.72;;;28.29;59.13
75359;BME280;64046;51.978;5.934;2023-06-22T12:02:03;101550.38;;;28.15;60.74
75359;BME280;64046;51.978;5.934;2023-06-22T12:04:36;101542.94;;;28.01;62.84
75359;BME280;64046;51.978;5.934;2023-06-22T12:07:06;101550.94;;;27.76;65.01
75359;BME280;64046;51.978;5.934;2023-06-22T12:09:37;101540.63;;;27.63;66.58
75359;BME280;64046;51.978;5.934;2023-06-22T12:12:08;101536.25;;;27.62;68.08
75359;BME280;64046;51.978;5.934;2023-06-22T12:14:43;101545.03;;;27.64;69.61
75359;BME280;64046;51.978;5.934;2023-06-22T12:17:14;101533.78;;;27.34;71.67
75359;BME280;64046;51.978;5.934;2023-06-22T12:19:45;101538.59;;;27.31;73.29
75359;BME280;64046;51.978;5.934;2023-06-22T12:22:19;101541.94;;;27.24;74.62
75359;BME280;64046;51.978;5.934;2023-06-22T12:24:49;101534.47;;;27.10;76.51
75359;BME280;64046;51.978;5.934;2023-06-22T12:27:18;101545.22;;;27.10;77.94
75359;BME280;64046;51.978;5.934;2023-06-22T12:29:53;101548.84;;;27.27;78.93
75359;BME280;64046;51.978;5.934;2023-06-22T12:32:28;101544.59;;;27.16;81.58
75359;BME280;64046;51.978;5.934;2023-06-22T12:35:00;101545.28;;;27.18;83.32
75359;BME280;64046;51.978;5.934;2023-06-22T12:37:31;101541.72;;;27.09;84.65
75359;BME280;64046;51.978;5.934;2023-06-22T12:40:02;101543.19;;;27.04;86.64
75359;BME280;64046;51.978;5.934;2023-06-22T12:42:33;101538.22;;;26.91;88.26
75359;BME280;64046;51.978;5.934;2023-06-22T12:45:09;101519.81;;;27.04;89.77
75359;BME280;64046;51.978;5.934;2023-06-22T12:47:39;101520.81;;;26.77;91.88
75359;BME280;64046;51.978;5.934;2023-06-22T12:50:12;101516.59;;;26.74;93.08
75359;BME280;64046;51.978;5.934;2023-06-22T12:52:43;101509.41;;;26.83;92.24
75359;BME280;64046;51.978;5.934;2023-06-22T12:55:14;101504.69;;;26.77;92.85
75359;BME280;64046;51.978;5.934;2023-06-22T12:57:46;101491.25;;;26.59;92.70
75359;BME280;64046;51.978;5.934;2023-06-22T13:00:20;101478.44;;;26.71;90.85
75359;BME280;64046;51.978;5.934;2023-06-22T13:02:59;101475.00;;;26.42;93.43
75359;BME280;64046;51.978;5.934;2023-06-22T13:05:29;101467.13;;;26.23;94.37
75359;BME280;64046;51.978;5.934;2023-06-22T13:08:03;101472.97;;;26.18;94.93
75359;BME280;64046;51.978;5.934;2023-06-22T13:10:34;101475.56;;;26.10;94.33
75359;BME280;64046;51.978;5.934;2023-06-22T13:13:03;101473.88;;;26.09;92.61
75359;BME280;64046;51.978;5.934;2023-06-22T13:15:52;101476.16;;;26.22;92.01
75359;BME280;64046;51.978;5.934;2023-06-22T13:18:22;101477.22;;;25.93;92.68
75359;BME280;64046;51.978;5.934;2023-06-22T13:20:52;101477.00;;;25.86;94.70
75359;BME280;64046;51.978;5.934;2023-06-22T13:23:27;101468.41;;;25.83;94.37